Hovedside
METAR-TAF:

METAR-TAF

Lufthavner :

Šiauliai, Litauen

breddegrad: 55-53-38N, lengdegrad: 023-23-42E, høyde over havet: 135 m

Gjeldene værobservasjon

Denne rapporten ble laget for 33 minutter siden, klokken 19:20 UTC
Vind 2 kt fra Sør
Temperatur 17°C
Luftfuktighet 88%
Trykk 1020 hPa
Sikt 10 km eller mer
ingen skyer under 1500 m og ingen bygeskyer

METAR: EYSA 161920Z 18002KT CAVOK 17/15 Q1020 BLU NOSIG

Tid: 22:53 (19:53 UTC)

Varsel

Denne rapporten ble laget for 2 timer og 53 minutter siden, klokken 17:00 UTC
Varsel gyldig fra 16. klokken 18 UTC til 17. klokken 03 UTC
Vind 4 kt fra skiftende retning
Sikt: 9000 m
Spredte skyer i en høyde av 4500 ft
Midlertidig
fra 17. klokken 00 UTC til 17. klokken 03 UTC
Sikt: 3000 m
Spredte skyer i en høyde av 500 ft
Grunne tåke, dis

TAF: EYSA 161700Z 1618/1703 VRB04KT 9000 SCT045 TEMPO 1700/1703 3000 MIFG BR SCT005

Værobservasjoner og værvarsel for over 4000 flyplasser (METAR- og TAF-rapporter).

Tilgjengelige stasjoner er representert av de røde og gule prikkene på kartet.

Hold musepekeren over prikken for å se navnet på stasjonen.

Klikk så for å se værobservasjoner og -varsler.

For å forandre kartet kan du klikke på den grønne knappen med svart kryss for å zoome inn, på den grønne knappen med strek for å zoome ut, eller på de grønne pilene for å se tilstøtende kart.


METAR-TAF: